Jeju International Airport
RKPC : rendu visible

Aérodrome :











RETROUVEZ-NOUS SUR...

 
LOGIN :

S'inscrire | Disclaimer

   EN    FR    IT 

 









Légende :    VFR   VFR Marginal   IFR   IFR Intensif   IFR Très Intensif
Visi : 
Plafond : 
>= 8 km
>= 3000ft
5 à 8 km
1000 à 3000 ft
1500m à 5 km
500 à 1000 ft
800 à 1500m
200 à 500 ft
< 800m
< 200 ft
Symboles :   Orages  Brouillard  Fortes neiges  Fortes précipitations  Vent > 20 kt






- Altitude de l'aérodrome : 118 ft
- Code IATA : CJU


RKPC - Jeju International

DERNIER METAR :
  • 151600Z 09012KT 9999 FEW050 13/07 Q1025 NOSIG

METARs EXPIRÉS :
  • 151500Z 10011KT CAVOK 13/07 Q1025 NOSIG
  • 151400Z 10012KT CAVOK 13/07 Q1025 NOSIG

TAF TAF RKPC
Valide du 15 à 12h jusqu'au 16 à 18h UTC


151100Z 1512/1618 10008KT 9999 FEW035 BKN150 TN09/1521Z TX18/1605Z
BECMG 1515/1516 17007KT
BECMG 1600/1601 10008KT
BECMG 1608/1609 17007KT
BECMG 1615/1616 BKN030 OVC100



MET'MAP, la Météo Aéronautique d'un coup d'oeil ! - Copyright ORBIFLY Décembre 2007 - Disclaimer

ORBIFLY MET'MAP TEAM :

Programmation & Développement : Alexandra Zaïnal
Sur une idée originale de : Baudouin d'Aumeries
Assistance à la programmation : Marc-Olivier Méhu
Soutien technique & logistique : Manuel Goepfert

Contact : metmap@orbifly.com




SOURCES & CREDITS :

   NOAA       Earth
Advisory